sensor_id;sensor_type;location;lat;lon;timestamp;P1;durP1;ratioP1;P2;durP2;ratioP2
22929;SDS011;11630;42.660;23.292;2023-10-13T00:02:12;12.63;;;7.73;;
22929;SDS011;11630;42.660;23.292;2023-10-13T00:04:43;9.00;;;7.47;;
22929;SDS011;11630;42.660;23.292;2023-10-13T00:07:14;10.43;;;7.47;;
22929;SDS011;11630;42.660;23.292;2023-10-13T00:09:45;12.07;;;7.10;;
22929;SDS011;11630;42.660;23.292;2023-10-13T00:12:16;11.93;;;7.13;;
22929;SDS011;11630;42.660;23.292;2023-10-13T00:14:47;10.70;;;7.23;;
22929;SDS011;11630;42.660;23.292;2023-10-13T00:17:17;10.47;;;6.90;;
22929;SDS011;11630;42.660;23.292;2023-10-13T00:19:48;11.17;;;6.80;;
22929;SDS011;11630;42.660;23.292;2023-10-13T00:22:22;10.03;;;6.90;;
22929;SDS011;11630;42.660;23.292;2023-10-13T00:24:52;12.20;;;6.53;;
22929;SDS011;11630;42.660;23.292;2023-10-13T00:27:23;8.67;;;6.77;;
22929;SDS011;11630;42.660;23.292;2023-10-13T00:29:55;11.70;;;7.10;;
22929;SDS011;11630;42.660;23.292;2023-10-13T00:32:42;9.20;;;7.27;;
22929;SDS011;11630;42.660;23.292;2023-10-13T00:35:19;11.97;;;7.77;;
22929;SDS011;11630;42.660;23.292;2023-10-13T00:37:58;13.03;;;7.57;;
22929;SDS011;11630;42.660;23.292;2023-10-13T00:40:32;12.73;;;7.50;;
22929;SDS011;11630;42.660;23.292;2023-10-13T00:43:03;12.27;;;7.57;;
22929;SDS011;11630;42.660;23.292;2023-10-13T00:45:49;11.70;;;8.23;;
22929;SDS011;11630;42.660;23.292;2023-10-13T00:48:31;11.23;;;7.47;;
22929;SDS011;11630;42.660;23.292;2023-10-13T00:51:02;10.07;;;7.70;;
22929;SDS011;11630;42.660;23.292;2023-10-13T00:53:35;10.20;;;7.57;;
22929;SDS011;11630;42.660;23.292;2023-10-13T00:56:10;10.00;;;7.33;;
22929;SDS011;11630;42.660;23.292;2023-10-13T00:58:47;12.97;;;7.83;;
22929;SDS011;11630;42.660;23.292;2023-10-13T01:01:20;10.00;;;7.60;;
22929;SDS011;11630;42.660;23.292;2023-10-13T01:03:52;14.07;;;7.27;;
22929;SDS011;11630;42.660;23.292;2023-10-13T01:06:25;12.33;;;7.97;;
22929;SDS011;11630;42.660;23.292;2023-10-13T01:09:01;11.50;;;6.93;;
22929;SDS011;11630;42.660;23.292;2023-10-13T01:11:41;20.63;;;7.93;;
22929;SDS011;11630;42.660;23.292;2023-10-13T01:14:21;10.40;;;6.70;;
22929;SDS011;11630;42.660;23.292;2023-10-13T01:16:52;9.30;;;7.00;;
22929;SDS011;11630;42.660;23.292;2023-10-13T01:19:24;11.60;;;7.50;;
22929;SDS011;11630;42.660;23.292;2023-10-13T01:21:58;9.90;;;6.77;;
22929;SDS011;11630;42.660;23.292;2023-10-13T01:24:29;11.90;;;6.63;;
22929;SDS011;11630;42.660;23.292;2023-10-13T01:27:01;12.80;;;7.80;;
22929;SDS011;11630;42.660;23.292;2023-10-13T01:29:46;15.83;;;8.23;;
22929;SDS011;11630;42.660;23.292;2023-10-13T01:32:18;11.83;;;7.57;;
22929;SDS011;11630;42.660;23.292;2023-10-13T01:34:50;13.77;;;7.93;;
22929;SDS011;11630;42.660;23.292;2023-10-13T01:37:24;14.03;;;7.67;;
22929;SDS011;11630;42.660;23.292;2023-10-13T01:39:55;11.77;;;7.50;;
22929;SDS011;11630;42.660;23.292;2023-10-13T01:42:24;10.60;;;7.63;;
22929;SDS011;11630;42.660;23.292;2023-10-13T01:44:55;11.07;;;7.63;;
22929;SDS011;11630;42.660;23.292;2023-10-13T01:47:25;19.50;;;8.50;;
22929;SDS011;11630;42.660;23.292;2023-10-13T01:49:56;14.13;;;8.00;;
22929;SDS011;11630;42.660;23.292;2023-10-13T01:52:27;10.00;;;7.53;;
22929;SDS011;11630;42.660;23.292;2023-10-13T01:54:58;14.43;;;9.80;;
22929;SDS011;11630;42.660;23.292;2023-10-13T01:57:29;13.10;;;7.80;;
22929;SDS011;11630;42.660;23.292;2023-10-13T01:59:59;11.17;;;7.53;;
22929;SDS011;11630;42.660;23.292;2023-10-13T02:02:31;18.63;;;8.53;;
22929;SDS011;11630;42.660;23.292;2023-10-13T02:05:02;10.37;;;7.50;;
22929;SDS011;11630;42.660;23.292;2023-10-13T02:07:33;11.53;;;7.87;;
22929;SDS011;11630;42.660;23.292;2023-10-13T02:10:05;12.63;;;9.20;;
22929;SDS011;11630;42.660;23.292;2023-10-13T02:12:37;14.30;;;8.00;;
22929;SDS011;11630;42.660;23.292;2023-10-13T02:15:11;12.23;;;8.00;;
22929;SDS011;11630;42.660;23.292;2023-10-13T02:17:52;18.83;;;8.10;;
22929;SDS011;11630;42.660;23.292;2023-10-13T02:20:22;13.30;;;9.17;;
22929;SDS011;11630;42.660;23.292;2023-10-13T02:22:53;16.00;;;7.53;;
22929;SDS011;11630;42.660;23.292;2023-10-13T02:25:24;13.73;;;7.67;;
22929;SDS011;11630;42.660;23.292;2023-10-13T02:28:04;14.07;;;8.27;;
22929;SDS011;11630;42.660;23.292;2023-10-13T02:30:38;8.23;;;7.00;;
22929;SDS011;11630;42.660;23.292;2023-10-13T02:33:12;12.27;;;8.10;;
22929;SDS011;11630;42.660;23.292;2023-10-13T02:35:43;12.20;;;7.03;;
22929;SDS011;11630;42.660;23.292;2023-10-13T02:38:13;10.40;;;7.27;;
22929;SDS011;11630;42.660;23.292;2023-10-13T02:40:44;17.37;;;8.13;;
22929;SDS011;11630;42.660;23.292;2023-10-13T02:43:15;12.97;;;9.30;;
22929;SDS011;11630;42.660;23.292;2023-10-13T02:45:51;16.20;;;8.57;;
22929;SDS011;11630;42.660;23.292;2023-10-13T02:48:27;10.90;;;8.17;;
22929;SDS011;11630;42.660;23.292;2023-10-13T02:51:07;15.00;;;8.03;;
22929;SDS011;11630;42.660;23.292;2023-10-13T02:53:47;13.20;;;9.03;;
22929;SDS011;11630;42.660;23.292;2023-10-13T02:56:18;12.37;;;8.30;;
22929;SDS011;11630;42.660;23.292;2023-10-13T02:58:50;11.90;;;9.43;;
22929;SDS011;11630;42.660;23.292;2023-10-13T03:01:22;11.67;;;7.73;;
22929;SDS011;11630;42.660;23.292;2023-10-13T03:03:57;14.50;;;8.37;;
22929;SDS011;11630;42.660;23.292;2023-10-13T03:06:28;15.17;;;8.10;;
22929;SDS011;11630;42.660;23.292;2023-10-13T03:09:07;12.63;;;7.87;;
22929;SDS011;11630;42.660;23.292;2023-10-13T03:11:45;18.00;;;8.60;;
22929;SDS011;11630;42.660;23.292;2023-10-13T03:14:23;11.00;;;8.17;;
22929;SDS011;11630;42.660;23.292;2023-10-13T03:17:00;14.83;;;8.00;;
22929;SDS011;11630;42.660;23.292;2023-10-13T03:19:38;26.63;;;9.27;;
22929;SDS011;11630;42.660;23.292;2023-10-13T03:22:18;17.97;;;8.23;;
22929;SDS011;11630;42.660;23.292;2023-10-13T03:24:49;21.70;;;8.10;;
22929;SDS011;11630;42.660;23.292;2023-10-13T03:27:20;17.77;;;7.87;;
22929;SDS011;11630;42.660;23.292;2023-10-13T03:29:51;16.33;;;9.53;;
22929;SDS011;11630;42.660;23.292;2023-10-13T03:32:23;12.03;;;9.83;;
22929;SDS011;11630;42.660;23.292;2023-10-13T03:34:53;17.33;;;8.37;;
22929;SDS011;11630;42.660;23.292;2023-10-13T03:37:27;13.47;;;7.20;;
22929;SDS011;11630;42.660;23.292;2023-10-13T03:40:10;16.70;;;7.80;;
22929;SDS011;11630;42.660;23.292;2023-10-13T03:42:50;15.67;;;8.53;;
22929;SDS011;11630;42.660;23.292;2023-10-13T03:45:40;12.10;;;7.30;;
22929;SDS011;11630;42.660;23.292;2023-10-13T03:48:12;15.20;;;8.17;;
22929;SDS011;11630;42.660;23.292;2023-10-13T03:50:49;14.23;;;8.33;;
22929;SDS011;11630;42.660;23.292;2023-10-13T03:53:39;12.60;;;7.33;;
22929;SDS011;11630;42.660;23.292;2023-10-13T03:56:23;12.43;;;7.50;;
22929;SDS011;11630;42.660;23.292;2023-10-13T03:58:56;17.67;;;8.57;;
22929;SDS011;11630;42.660;23.292;2023-10-13T04:01:28;13.40;;;8.07;;
22929;SDS011;11630;42.660;23.292;2023-10-13T04:04:11;15.17;;;8.43;;
22929;SDS011;11630;42.660;23.292;2023-10-13T04:06:42;15.93;;;9.67;;
22929;SDS011;11630;42.660;23.292;2023-10-13T04:09:16;17.87;;;9.63;;
22929;SDS011;11630;42.660;23.292;2023-10-13T04:11:58;17.83;;;8.60;;
22929;SDS011;11630;42.660;23.292;2023-10-13T04:14:30;23.23;;;8.67;;
22929;SDS011;11630;42.660;23.292;2023-10-13T04:17:21;12.17;;;7.80;;
22929;SDS011;11630;42.660;23.292;2023-10-13T04:19:52;13.43;;;8.93;;
22929;SDS011;11630;42.660;23.292;2023-10-13T04:22:36;15.43;;;7.93;;
22929;SDS011;11630;42.660;23.292;2023-10-13T04:25:14;15.43;;;9.07;;
22929;SDS011;11630;42.660;23.292;2023-10-13T04:30:50;31.07;;;17.13;;
22929;SDS011;11630;42.660;23.292;2023-10-13T04:33:31;23.40;;;14.90;;
22929;SDS011;11630;42.660;23.292;2023-10-13T04:36:09;27.00;;;13.67;;
22929;SDS011;11630;42.660;23.292;2023-10-13T04:38:56;23.57;;;12.47;;
22929;SDS011;11630;42.660;23.292;2023-10-13T04:41:28;23.97;;;13.13;;
22929;SDS011;11630;42.660;23.292;2023-10-13T04:44:01;22.73;;;11.13;;
22929;SDS011;11630;42.660;23.292;2023-10-13T04:46:32;20.83;;;11.30;;
22929;SDS011;11630;42.660;23.292;2023-10-13T04:49:03;22.03;;;10.60;;
22929;SDS011;11630;42.660;23.292;2023-10-13T04:51:37;26.30;;;9.67;;
22929;SDS011;11630;42.660;23.292;2023-10-13T04:54:14;32.97;;;15.23;;
22929;SDS011;11630;42.660;23.292;2023-10-13T04:56:45;19.77;;;11.27;;
22929;SDS011;11630;42.660;23.292;2023-10-13T04:59:33;24.70;;;13.30;;
22929;SDS011;11630;42.660;23.292;2023-10-13T05:02:04;23.67;;;12.10;;
22929;SDS011;11630;42.660;23.292;2023-10-13T05:04:53;28.77;;;10.83;;
22929;SDS011;11630;42.660;23.292;2023-10-13T05:07:41;16.47;;;11.30;;
22929;SDS011;11630;42.660;23.292;2023-10-13T05:10:29;26.07;;;13.67;;
22929;SDS011;11630;42.660;23.292;2023-10-13T05:13:17;38.70;;;13.90;;
22929;SDS011;11630;42.660;23.292;2023-10-13T05:16:04;37.77;;;13.47;;
22929;SDS011;11630;42.660;23.292;2023-10-13T05:18:50;30.07;;;12.70;;
22929;SDS011;11630;42.660;23.292;2023-10-13T05:21:33;26.47;;;11.50;;
22929;SDS011;11630;42.660;23.292;2023-10-13T05:24:20;31.20;;;13.60;;
22929;SDS011;11630;42.660;23.292;2023-10-13T05:27:07;26.00;;;11.73;;
22929;SDS011;11630;42.660;23.292;2023-10-13T05:29:53;43.53;;;12.73;;
22929;SDS011;11630;42.660;23.292;2023-10-13T05:32:39;46.07;;;13.57;;
22929;SDS011;11630;42.660;23.292;2023-10-13T05:35:27;37.13;;;14.07;;
22929;SDS011;11630;42.660;23.292;2023-10-13T05:38:14;34.37;;;12.97;;
22929;SDS011;11630;42.660;23.292;2023-10-13T05:41:02;37.83;;;12.17;;
22929;SDS011;11630;42.660;23.292;2023-10-13T05:43:51;33.03;;;12.97;;
22929;SDS011;11630;42.660;23.292;2023-10-13T05:46:38;27.47;;;12.33;;
22929;SDS011;11630;42.660;23.292;2023-10-13T05:49:18;35.13;;;12.87;;
22929;SDS011;11630;42.660;23.292;2023-10-13T05:51:48;21.57;;;12.37;;
22929;SDS011;11630;42.660;23.292;2023-10-13T05:54:26;31.47;;;12.73;;
22929;SDS011;11630;42.660;23.292;2023-10-13T05:57:13;35.90;;;12.93;;
22929;SDS011;11630;42.660;23.292;2023-10-13T06:00:00;33.80;;;13.10;;
22929;SDS011;11630;42.660;23.292;2023-10-13T06:02:47;29.90;;;13.60;;
22929;SDS011;11630;42.660;23.292;2023-10-13T06:05:35;23.97;;;12.70;;
22929;SDS011;11630;42.660;23.292;2023-10-13T06:08:23;24.57;;;14.13;;
22929;SDS011;11630;42.660;23.292;2023-10-13T06:11:10;24.43;;;13.33;;
22929;SDS011;11630;42.660;23.292;2023-10-13T06:13:57;31.77;;;12.80;;
22929;SDS011;11630;42.660;23.292;2023-10-13T06:16:43;30.57;;;13.40;;
22929;SDS011;11630;42.660;23.292;2023-10-13T06:19:30;28.10;;;13.23;;
22929;SDS011;11630;42.660;23.292;2023-10-13T06:22:17;30.67;;;16.23;;
22929;SDS011;11630;42.660;23.292;2023-10-13T06:25:05;22.70;;;14.97;;
22929;SDS011;11630;42.660;23.292;2023-10-13T06:27:51;33.33;;;15.77;;
22929;SDS011;11630;42.660;23.292;2023-10-13T06:30:37;26.70;;;13.97;;
22929;SDS011;11630;42.660;23.292;2023-10-13T06:33:07;34.03;;;18.03;;
22929;SDS011;11630;42.660;23.292;2023-10-13T06:35:38;30.13;;;15.67;;
22929;SDS011;11630;42.660;23.292;2023-10-13T06:38:09;24.90;;;14.27;;
22929;SDS011;11630;42.660;23.292;2023-10-13T06:40:44;20.77;;;14.90;;
22929;SDS011;11630;42.660;23.292;2023-10-13T06:43:12;19.53;;;14.57;;
22929;SDS011;11630;42.660;23.292;2023-10-13T06:45:46;26.27;;;14.50;;
22929;SDS011;11630;42.660;23.292;2023-10-13T06:48:29;29.50;;;13.90;;
22929;SDS011;11630;42.660;23.292;2023-10-13T06:51:02;33.70;;;15.13;;
22929;SDS011;11630;42.660;23.292;2023-10-13T06:53:45;28.53;;;15.67;;
22929;SDS011;11630;42.660;23.292;2023-10-13T06:56:16;26.17;;;14.33;;
22929;SDS011;11630;42.660;23.292;2023-10-13T06:58:49;23.20;;;14.03;;
22929;SDS011;11630;42.660;23.292;2023-10-13T07:01:20;28.33;;;15.33;;
22929;SDS011;11630;42.660;23.292;2023-10-13T07:03:51;22.73;;;16.67;;
22929;SDS011;11630;42.660;23.292;2023-10-13T07:06:21;20.20;;;14.73;;
22929;SDS011;11630;42.660;23.292;2023-10-13T07:08:50;25.13;;;14.33;;
22929;SDS011;11630;42.660;23.292;2023-10-13T07:11:24;24.43;;;15.57;;
22929;SDS011;11630;42.660;23.292;2023-10-13T07:14:06;28.23;;;15.00;;
22929;SDS011;11630;42.660;23.292;2023-10-13T07:16:43;24.73;;;16.57;;
22929;SDS011;11630;42.660;23.292;2023-10-13T07:19:14;25.73;;;16.40;;
22929;SDS011;11630;42.660;23.292;2023-10-13T07:21:46;28.70;;;17.53;;
22929;SDS011;11630;42.660;23.292;2023-10-13T07:24:16;30.73;;;18.83;;
22929;SDS011;11630;42.660;23.292;2023-10-13T07:26:47;29.40;;;17.87;;
22929;SDS011;11630;42.660;23.292;2023-10-13T07:29:18;30.93;;;15.13;;
22929;SDS011;11630;42.660;23.292;2023-10-13T07:31:48;21.70;;;15.57;;
22929;SDS011;11630;42.660;23.292;2023-10-13T07:34:20;25.60;;;16.17;;
22929;SDS011;11630;42.660;23.292;2023-10-13T07:36:59;27.37;;;17.60;;
22929;SDS011;11630;42.660;23.292;2023-10-13T07:39:31;27.33;;;15.87;;
22929;SDS011;11630;42.660;23.292;2023-10-13T07:42:03;28.43;;;14.73;;
22929;SDS011;11630;42.660;23.292;2023-10-13T07:44:35;23.73;;;15.07;;
22929;SDS011;11630;42.660;23.292;2023-10-13T07:47:06;20.73;;;14.70;;
22929;SDS011;11630;42.660;23.292;2023-10-13T07:49:37;27.60;;;15.33;;
22929;SDS011;11630;42.660;23.292;2023-10-13T07:52:10;28.03;;;14.63;;
22929;SDS011;11630;42.660;23.292;2023-10-13T07:54:49;28.77;;;14.30;;
22929;SDS011;11630;42.660;23.292;2023-10-13T07:57:38;34.87;;;14.17;;
22929;SDS011;11630;42.660;23.292;2023-10-13T08:00:11;27.90;;;13.33;;
22929;SDS011;11630;42.660;23.292;2023-10-13T08:02:42;21.53;;;11.97;;
22929;SDS011;11630;42.660;23.292;2023-10-13T08:05:16;29.83;;;13.80;;
22929;SDS011;11630;42.660;23.292;2023-10-13T08:07:57;26.17;;;14.77;;
22929;SDS011;11630;42.660;23.292;2023-10-13T08:10:27;22.00;;;13.43;;
22929;SDS011;11630;42.660;23.292;2023-10-13T08:12:59;20.23;;;14.20;;
22929;SDS011;11630;42.660;23.292;2023-10-13T08:15:30;24.00;;;16.30;;
22929;SDS011;11630;42.660;23.292;2023-10-13T08:18:00;40.17;;;16.07;;
22929;SDS011;11630;42.660;23.292;2023-10-13T08:20:31;25.97;;;13.27;;
22929;SDS011;11630;42.660;23.292;2023-10-13T08:23:02;27.00;;;16.57;;
22929;SDS011;11630;42.660;23.292;2023-10-13T08:25:42;28.97;;;14.83;;
22929;SDS011;11630;42.660;23.292;2023-10-13T08:28:21;25.93;;;16.50;;
22929;SDS011;11630;42.660;23.292;2023-10-13T08:31:05;25.33;;;16.57;;
22929;SDS011;11630;42.660;23.292;2023-10-13T08:33:44;37.27;;;16.23;;
22929;SDS011;11630;42.660;23.292;2023-10-13T08:36:14;30.80;;;15.90;;
22929;SDS011;11630;42.660;23.292;2023-10-13T08:38:55;29.83;;;15.97;;
22929;SDS011;11630;42.660;23.292;2023-10-13T08:41:25;39.83;;;19.17;;
22929;SDS011;11630;42.660;23.292;2023-10-13T08:44:00;34.23;;;18.73;;
22929;SDS011;11630;42.660;23.292;2023-10-13T08:46:31;27.57;;;17.13;;
22929;SDS011;11630;42.660;23.292;2023-10-13T08:49:20;30.87;;;17.53;;
22929;SDS011;11630;42.660;23.292;2023-10-13T08:51:51;25.40;;;16.10;;
22929;SDS011;11630;42.660;23.292;2023-10-13T08:54:35;36.83;;;18.83;;
22929;SDS011;11630;42.660;23.292;2023-10-13T08:57:07;35.67;;;17.47;;
22929;SDS011;11630;42.660;23.292;2023-10-13T08:59:54;29.57;;;18.30;;
22929;SDS011;11630;42.660;23.292;2023-10-13T09:02:25;28.80;;;17.90;;
22929;SDS011;11630;42.660;23.292;2023-10-13T09:05:11;39.17;;;21.20;;
22929;SDS011;11630;42.660;23.292;2023-10-13T09:07:59;30.17;;;16.43;;
22929;SDS011;11630;42.660;23.292;2023-10-13T09:10:29;37.97;;;15.23;;
22929;SDS011;11630;42.660;23.292;2023-10-13T09:13:03;36.03;;;16.37;;
22929;SDS011;11630;42.660;23.292;2023-10-13T09:15:34;35.33;;;15.40;;
22929;SDS011;11630;42.660;23.292;2023-10-13T09:18:24;30.90;;;15.50;;
22929;SDS011;11630;42.660;23.292;2023-10-13T09:20:59;30.23;;;14.63;;
22929;SDS011;11630;42.660;23.292;2023-10-13T09:23:26;39.00;;;15.67;;
22929;SDS011;11630;42.660;23.292;2023-10-13T09:25:57;32.93;;;15.43;;
22929;SDS011;11630;42.660;23.292;2023-10-13T09:28:29;29.53;;;15.37;;
22929;SDS011;11630;42.660;23.292;2023-10-13T09:31:00;34.37;;;15.57;;
22929;SDS011;11630;42.660;23.292;2023-10-13T09:33:30;32.33;;;14.53;;
22929;SDS011;11630;42.660;23.292;2023-10-13T09:36:01;18.67;;;11.73;;
22929;SDS011;11630;42.660;23.292;2023-10-13T09:38:36;23.00;;;11.63;;
22929;SDS011;11630;42.660;23.292;2023-10-13T09:41:09;26.30;;;12.17;;
22929;SDS011;11630;42.660;23.292;2023-10-13T09:43:46;27.90;;;10.97;;
22929;SDS011;11630;42.660;23.292;2023-10-13T09:46:20;25.20;;;10.17;;
22929;SDS011;11630;42.660;23.292;2023-10-13T09:48:58;28.80;;;12.40;;
22929;SDS011;11630;42.660;23.292;2023-10-13T09:51:34;23.60;;;9.47;;
22929;SDS011;11630;42.660;23.292;2023-10-13T09:54:16;28.00;;;9.93;;
22929;SDS011;11630;42.660;23.292;2023-10-13T09:57:02;24.33;;;9.90;;
22929;SDS011;11630;42.660;23.292;2023-10-13T09:59:45;23.97;;;10.33;;
22929;SDS011;11630;42.660;23.292;2023-10-13T10:02:08;20.43;;;8.30;;
22929;SDS011;11630;42.660;23.292;2023-10-13T10:04:39;22.13;;;7.70;;
22929;SDS011;11630;42.660;23.292;2023-10-13T10:07:14;33.10;;;8.97;;
22929;SDS011;11630;42.660;23.292;2023-10-13T10:09:55;16.90;;;7.17;;
22929;SDS011;11630;42.660;23.292;2023-10-13T10:12:34;29.03;;;8.23;;
22929;SDS011;11630;42.660;23.292;2023-10-13T10:15:23;19.10;;;7.17;;
22929;SDS011;11630;42.660;23.292;2023-10-13T10:17:58;18.07;;;8.73;;
22929;SDS011;11630;42.660;23.292;2023-10-13T10:20:30;19.57;;;7.67;;
22929;SDS011;11630;42.660;23.292;2023-10-13T10:23:01;18.40;;;6.73;;
22929;SDS011;11630;42.660;23.292;2023-10-13T10:25:32;15.60;;;7.33;;
22929;SDS011;11630;42.660;23.292;2023-10-13T10:28:05;34.43;;;8.23;;
22929;SDS011;11630;42.660;23.292;2023-10-13T10:30:37;20.60;;;7.33;;
22929;SDS011;11630;42.660;23.292;2023-10-13T10:33:08;19.97;;;5.73;;
22929;SDS011;11630;42.660;23.292;2023-10-13T10:35:40;15.87;;;7.43;;
22929;SDS011;11630;42.660;23.292;2023-10-13T10:38:16;14.55;;;5.33;;
22929;SDS011;11630;42.660;23.292;2023-10-13T10:40:51;12.95;;;6.17;;
22929;SDS011;11630;42.660;23.292;2023-10-13T10:46:13;17.50;;;4.60;;
22929;SDS011;11630;42.660;23.292;2023-10-13T10:48:46;16.57;;;4.05;;
22929;SDS011;11630;42.660;23.292;2023-10-13T10:51:17;11.25;;;5.05;;
22929;SDS011;11630;42.660;23.292;2023-10-13T10:53:52;10.90;;;4.80;;
22929;SDS011;11630;42.660;23.292;2023-10-13T10:56:25;20.85;;;5.70;;
22929;SDS011;11630;42.660;23.292;2023-10-13T10:59:04;13.33;;;5.20;;
22929;SDS011;11630;42.660;23.292;2023-10-13T11:01:46;10.67;;;5.30;;
22929;SDS011;11630;42.660;23.292;2023-10-13T11:04:20;18.40;;;6.03;;
22929;SDS011;11630;42.660;23.292;2023-10-13T11:06:55;12.30;;;5.40;;
22929;SDS011;11630;42.660;23.292;2023-10-13T11:09:28;11.65;;;4.75;;
22929;SDS011;11630;42.660;23.292;2023-10-13T11:14:46;22.65;;;6.58;;
22929;SDS011;11630;42.660;23.292;2023-10-13T11:17:22;14.18;;;6.05;;
22929;SDS011;11630;42.660;23.292;2023-10-13T11:19:56;28.62;;;8.18;;
22929;SDS011;11630;42.660;23.292;2023-10-13T11:22:36;10.75;;;4.85;;
22929;SDS011;11630;42.660;23.292;2023-10-13T11:25:05;20.32;;;5.55;;
22929;SDS011;11630;42.660;23.292;2023-10-13T11:27:38;23.47;;;5.47;;
22929;SDS011;11630;42.660;23.292;2023-10-13T11:30:15;13.28;;;4.40;;
22929;SDS011;11630;42.660;23.292;2023-10-13T11:33:04;17.95;;;4.03;;
22929;SDS011;11630;42.660;23.292;2023-10-13T11:35:37;10.48;;;3.60;;
22929;SDS011;11630;42.660;23.292;2023-10-13T11:38:27;21.50;;;3.92;;
22929;SDS011;11630;42.660;23.292;2023-10-13T11:41:00;10.82;;;4.03;;
22929;SDS011;11630;42.660;23.292;2023-10-13T11:43:37;7.55;;;4.00;;
22929;SDS011;11630;42.660;23.292;2023-10-13T11:46:35;10.38;;;4.00;;
22929;SDS011;11630;42.660;23.292;2023-10-13T11:49:12;17.85;;;4.00;;
22929;SDS011;11630;42.660;23.292;2023-10-13T11:51:57;10.15;;;3.80;;
22929;SDS011;11630;42.660;23.292;2023-10-13T11:54:36;7.50;;;3.65;;
22929;SDS011;11630;42.660;23.292;2023-10-13T11:57:07;13.83;;;3.75;;
22929;SDS011;11630;42.660;23.292;2023-10-13T11:59:38;11.15;;;3.58;;
22929;SDS011;11630;42.660;23.292;2023-10-13T12:02:09;19.77;;;3.75;;
22929;SDS011;11630;42.660;23.292;2023-10-13T12:04:55;14.20;;;4.10;;
22929;SDS011;11630;42.660;23.292;2023-10-13T12:07:26;9.80;;;3.02;;
22929;SDS011;11630;42.660;23.292;2023-10-13T12:10:13;7.87;;;3.25;;
22929;SDS011;11630;42.660;23.292;2023-10-13T12:12:43;7.42;;;3.80;;
22929;SDS011;11630;42.660;23.292;2023-10-13T12:15:14;8.65;;;3.50;;
22929;SDS011;11630;42.660;23.292;2023-10-13T12:17:53;10.45;;;2.92;;
22929;SDS011;11630;42.660;23.292;2023-10-13T12:20:24;10.75;;;3.30;;
22929;SDS011;11630;42.660;23.292;2023-10-13T12:23:02;22.07;;;4.30;;
22929;SDS011;11630;42.660;23.292;2023-10-13T12:25:39;14.05;;;3.40;;
22929;SDS011;11630;42.660;23.292;2023-10-13T12:28:23;7.60;;;2.92;;
22929;SDS011;11630;42.660;23.292;2023-10-13T12:30:56;8.88;;;3.00;;
22929;SDS011;11630;42.660;23.292;2023-10-13T12:33:27;19.05;;;3.55;;
22929;SDS011;11630;42.660;23.292;2023-10-13T12:36:04;11.95;;;3.20;;
22929;SDS011;11630;42.660;23.292;2023-10-13T12:38:34;13.03;;;2.87;;
22929;SDS011;11630;42.660;23.292;2023-10-13T12:41:15;5.90;;;2.58;;
22929;SDS011;11630;42.660;23.292;2023-10-13T12:44:04;7.40;;;3.52;;
22929;SDS011;11630;42.660;23.292;2023-10-13T12:46:51;14.43;;;3.17;;
22929;SDS011;11630;42.660;23.292;2023-10-13T12:49:38;27.48;;;4.20;;
22929;SDS011;11630;42.660;23.292;2023-10-13T12:52:10;4.87;;;3.37;;
22929;SDS011;11630;42.660;23.292;2023-10-13T12:54:58;8.55;;;2.70;;
22929;SDS011;11630;42.660;23.292;2023-10-13T12:57:35;7.87;;;2.87;;
22929;SDS011;11630;42.660;23.292;2023-10-13T13:00:06;5.70;;;3.27;;
22929;SDS011;11630;42.660;23.292;2023-10-13T13:02:44;9.90;;;3.15;;
22929;SDS011;11630;42.660;23.292;2023-10-13T13:05:14;8.88;;;2.90;;
22929;SDS011;11630;42.660;23.292;2023-10-13T13:07:45;11.35;;;2.62;;
22929;SDS011;11630;42.660;23.292;2023-10-13T13:10:16;8.93;;;3.55;;
22929;SDS011;11630;42.660;23.292;2023-10-13T13:12:46;26.50;;;4.60;;
22929;SDS011;11630;42.660;23.292;2023-10-13T13:15:17;8.30;;;3.33;;
22929;SDS011;11630;42.660;23.292;2023-10-13T13:17:48;9.38;;;3.10;;
22929;SDS011;11630;42.660;23.292;2023-10-13T13:20:18;13.15;;;3.85;;
22929;SDS011;11630;42.660;23.292;2023-10-13T13:22:55;14.30;;;3.10;;
22929;SDS011;11630;42.660;23.292;2023-10-13T13:25:26;7.95;;;3.00;;
22929;SDS011;11630;42.660;23.292;2023-10-13T13:27:57;10.95;;;3.22;;
22929;SDS011;11630;42.660;23.292;2023-10-13T13:30:28;15.68;;;5.60;;
22929;SDS011;11630;42.660;23.292;2023-10-13T13:32:59;3.95;;;3.08;;
22929;SDS011;11630;42.660;23.292;2023-10-13T13:35:30;7.50;;;3.87;;
22929;SDS011;11630;42.660;23.292;2023-10-13T13:38:01;7.87;;;2.83;;
22929;SDS011;11630;42.660;23.292;2023-10-13T13:40:32;9.15;;;3.62;;
22929;SDS011;11630;42.660;23.292;2023-10-13T13:43:02;5.70;;;2.60;;
22929;SDS011;11630;42.660;23.292;2023-10-13T13:45:36;11.43;;;3.87;;
22929;SDS011;11630;42.660;23.292;2023-10-13T13:48:07;7.72;;;3.90;;
22929;SDS011;11630;42.660;23.292;2023-10-13T13:50:38;8.50;;;3.90;;
22929;SDS011;11630;42.660;23.292;2023-10-13T13:53:11;14.63;;;3.80;;
22929;SDS011;11630;42.660;23.292;2023-10-13T13:55:42;7.70;;;4.13;;
22929;SDS011;11630;42.660;23.292;2023-10-13T13:58:13;10.10;;;3.80;;
22929;SDS011;11630;42.660;23.292;2023-10-13T14:00:43;10.80;;;5.43;;
22929;SDS011;11630;42.660;23.292;2023-10-13T14:03:14;14.53;;;7.37;;
22929;SDS011;11630;42.660;23.292;2023-10-13T14:06:00;18.93;;;5.53;;
22929;SDS011;11630;42.660;23.292;2023-10-13T14:08:31;7.20;;;3.20;;
22929;SDS011;11630;42.660;23.292;2023-10-13T14:11:03;24.27;;;4.03;;
22929;SDS011;11630;42.660;23.292;2023-10-13T14:13:40;11.43;;;4.33;;
22929;SDS011;11630;42.660;23.292;2023-10-13T14:16:11;13.43;;;3.97;;
22929;SDS011;11630;42.660;23.292;2023-10-13T14:18:45;10.80;;;3.03;;
22929;SDS011;11630;42.660;23.292;2023-10-13T14:21:16;13.77;;;3.00;;
22929;SDS011;11630;42.660;23.292;2023-10-13T14:23:47;6.50;;;2.60;;
22929;SDS011;11630;42.660;23.292;2023-10-13T14:26:19;15.83;;;3.10;;
22929;SDS011;11630;42.660;23.292;2023-10-13T14:28:51;8.07;;;2.60;;
22929;SDS011;11630;42.660;23.292;2023-10-13T14:31:28;10.47;;;3.47;;
22929;SDS011;11630;42.660;23.292;2023-10-13T14:33:59;9.97;;;3.37;;
22929;SDS011;11630;42.660;23.292;2023-10-13T14:36:30;8.57;;;3.50;;
22929;SDS011;11630;42.660;23.292;2023-10-13T14:39:04;8.47;;;3.73;;
22929;SDS011;11630;42.660;23.292;2023-10-13T14:41:42;13.90;;;3.60;;
22929;SDS011;11630;42.660;23.292;2023-10-13T14:44:13;13.07;;;3.43;;
22929;SDS011;11630;42.660;23.292;2023-10-13T14:46:44;12.10;;;3.70;;
22929;SDS011;11630;42.660;23.292;2023-10-13T14:49:15;9.50;;;3.57;;
22929;SDS011;11630;42.660;23.292;2023-10-13T14:51:46;8.90;;;4.83;;
22929;SDS011;11630;42.660;23.292;2023-10-13T14:54:16;8.83;;;3.47;;
22929;SDS011;11630;42.660;23.292;2023-10-13T14:56:47;17.40;;;3.83;;
22929;SDS011;11630;42.660;23.292;2023-10-13T14:59:18;12.73;;;3.53;;
22929;SDS011;11630;42.660;23.292;2023-10-13T15:01:49;7.20;;;2.93;;
22929;SDS011;11630;42.660;23.292;2023-10-13T15:04:20;9.30;;;3.37;;
22929;SDS011;11630;42.660;23.292;2023-10-13T15:06:51;9.73;;;3.53;;
22929;SDS011;11630;42.660;23.292;2023-10-13T15:09:22;12.87;;;3.40;;
22929;SDS011;11630;42.660;23.292;2023-10-13T15:11:53;9.37;;;3.10;;
22929;SDS011;11630;42.660;23.292;2023-10-13T15:14:24;13.63;;;4.00;;
22929;SDS011;11630;42.660;23.292;2023-10-13T15:16:55;10.67;;;4.10;;